Time;durP1;ratioP1;P1;durP2;ratioP2;P2;SDS_P1;SDS_P2;PMS_P1;PMS_P2;Temp;Humidity;BMP_temperature;BMP_pressure;BME280_temperature;BME280_humidity;BME280_pressure;Samples;Min_cycle;Max_cycle;Signal;HPM_P1;HPM_P2
2024/04/12 00:02:11;;;;;;;1.90;0.63;;;;;;;8.82;100.00;102190.78;5283249;26;20392;-76
2024/04/12 00:04:41;;;;;;;1.73;0.50;;;;;;;8.83;100.00;102192.28;5295578;26;20029;-75
2024/04/12 00:07:16;;;;;;;1.40;0.43;;;;;;;8.85;100.00;102189.75;5343478;26;20019;-76
2024/04/12 00:09:52;;;;;;;1.48;0.60;;;;;;;8.84;100.00;102191.03;5320519;26;20008;-74
2024/04/12 00:12:27;;;;;;;3.70;0.47;;;;;;;8.85;100.00;102186.25;5338728;26;20004;-76
2024/04/12 00:15:02;;;;;;;1.05;0.38;;;;;;;8.82;100.00;102183.22;5344251;26;20493;-76
2024/04/12 00:17:33;;;;;;;1.50;0.60;;;;;;;8.81;100.00;102194.81;5326375;26;20005;-75
2024/04/12 00:20:02;;;;;;;4.60;0.88;;;;;;;8.81;100.00;102194.81;5346037;26;20023;-75
2024/04/12 00:22:32;;;;;;;4.38;0.63;;;;;;;8.79;100.00;102191.78;5301804;26;20016;-76
2024/04/12 00:25:04;;;;;;;3.33;1.10;;;;;;;8.75;100.00;102192.06;5350664;26;20004;-75
2024/04/12 00:27:37;;;;;;;1.40;0.80;;;;;;;8.73;100.00;102194.56;5341045;26;20005;-75
2024/04/12 00:30:07;;;;;;;1.52;0.60;;;;;;;8.68;100.00;102189.00;5323195;26;20807;-76
2024/04/12 00:32:42;;;;;;;1.55;0.88;;;;;;;8.61;100.00;102196.56;5345339;26;20550;-76
2024/04/12 00:35:11;;;;;;;1.25;0.60;;;;;;;8.56;100.00;102200.09;5301500;26;20072;-77
2024/04/12 00:37:52;;;;;;;2.33;0.85;;;;;;;8.51;100.00;102197.34;5336612;26;20005;-76
2024/04/12 00:40:24;;;;;;;1.25;0.63;;;;;;;8.40;100.00;102198.06;5345054;26;20004;-76
2024/04/12 00:42:57;;;;;;;2.20;0.80;;;;;;;8.33;100.00;102201.28;5332069;26;20673;-75
2024/04/12 00:45:39;;;;;;;1.63;0.88;;;;;;;8.27;100.00;102204.06;5346976;26;20057;-76
2024/04/12 00:48:08;;;;;;;2.22;0.90;;;;;;;8.21;100.00;102203.31;5315981;26;20540;-76
2024/04/12 00:50:40;;;;;;;4.25;1.13;;;;;;;8.15;100.00;102202.53;5344758;26;20012;-76
2024/04/12 00:53:09;;;;;;;2.65;0.90;;;;;;;8.09;100.00;102194.22;5341367;26;20020;-76
2024/04/12 00:55:43;;;;;;;2.92;0.90;;;;;;;8.05;100.00;102204.03;5364300;26;20544;-75
2024/04/12 00:58:11;;;;;;;2.38;1.10;;;;;;;7.99;100.00;102206.78;5327627;26;20082;-73
2024/04/12 01:00:46;;;;;;;4.47;0.88;;;;;;;7.94;100.00;102199.97;5327243;26;20001;-76
2024/04/12 01:03:15;;;;;;;2.95;1.00;;;;;;;7.92;100.00;102207.25;5300706;26;20020;-76
2024/04/12 01:05:46;;;;;;;3.47;0.75;;;;;;;7.88;100.00;102196.44;5314471;26;20005;-76
2024/04/12 01:08:16;;;;;;;4.13;1.27;;;;;;;7.82;100.00;102198.44;5347720;26;20058;-76
2024/04/12 01:10:49;;;;;;;2.47;0.98;;;;;;;7.79;100.00;102195.88;5345648;26;20373;-74
2024/04/12 01:13:17;;;;;;;2.22;0.90;;;;;;;7.82;100.00;102194.91;5344991;26;20442;-76
2024/04/12 01:15:47;;;;;;;4.55;1.30;;;;;;;7.85;100.00;102199.44;5343001;26;20013;-75
2024/04/12 01:18:16;;;;;;;2.50;1.00;;;;;;;8.06;100.00;102198.00;5355168;26;20008;-76
2024/04/12 01:20:47;;;;;;;1.70;0.90;;;;;;;8.04;100.00;102185.94;5346205;26;20001;-76
2024/04/12 01:23:16;;;;;;;3.25;1.40;;;;;;;8.00;100.00;102180.63;5310637;26;20829;-76
2024/04/12 01:25:54;;;;;;;3.17;0.77;;;;;;;7.95;100.00;102178.63;5356532;26;20012;-76
2024/04/12 01:28:22;;;;;;;1.13;0.50;;;;;;;7.88;100.00;102182.59;5321384;26;20013;-74
2024/04/12 01:30:59;;;;;;;5.85;1.27;;;;;;;7.86;100.00;102181.59;5338675;26;20017;-76
2024/04/12 01:33:27;;;;;;;3.80;0.60;;;;;;;7.91;100.00;102183.63;5337111;26;20015;-76
2024/04/12 01:36:04;;;;;;;5.72;1.02;;;;;;;7.89;100.00;102175.84;5347080;26;20004;-74
2024/04/12 01:38:36;;;;;;;3.17;1.35;;;;;;;7.89;100.00;102184.13;5337933;26;20357;-76
2024/04/12 01:41:10;;;;;;;1.60;0.50;;;;;;;7.86;100.00;102176.06;5343724;26;20732;-75
2024/04/12 01:43:38;;;;;;;2.00;0.88;;;;;;;7.83;100.00;102175.06;5341889;26;20005;-77
2024/04/12 01:46:10;;;;;;;2.05;0.50;;;;;;;7.80;100.00;102175.31;5345420;26;20009;-75
2024/04/12 01:48:39;;;;;;;4.25;0.50;;;;;;;7.77;100.00;102176.31;5341748;26;20017;-75
2024/04/12 01:51:13;;;;;;;;;;;;;;;7.72;100.00;102173.03;5298057;26;20086;-76
2024/04/12 01:53:41;;;;;;;5.18;0.88;;;;;;;7.68;100.00;102177.28;5359027;26;20001;-75
2024/04/12 01:56:14;;;;;;;2.33;0.88;;;;;;;7.65;100.00;102179.03;5326022;26;20099;-76
2024/04/12 01:58:44;;;;;;;2.30;0.75;;;;;;;7.62;100.00;102185.56;5335660;26;20020;-76
2024/04/12 02:01:16;;;;;;;1.75;0.63;;;;;;;7.66;100.00;102179.78;5336566;26;20400;-76
2024/04/12 02:03:44;;;;;;;2.72;0.80;;;;;;;7.65;100.00;102183.81;5310596;26;20008;-76
2024/04/12 02:06:15;;;;;;;4.85;0.98;;;;;;;7.60;100.00;102187.31;5341344;26;20008;-76
2024/04/12 02:08:44;;;;;;;3.92;0.68;;;;;;;7.56;100.00;102190.28;5332011;26;20009;-76
2024/04/12 02:11:23;;;;;;;1.98;0.75;;;;;;;7.52;100.00;102187.78;5357914;26;20015;-74
2024/04/12 02:13:53;;;;;;;2.63;0.90;;;;;;;7.49;100.00;102186.00;5351607;26;20102;-76
2024/04/12 02:16:27;;;;;;;1.80;0.65;;;;;;;7.52;100.00;102189.78;5338566;26;20024;-76
2024/04/12 02:18:56;;;;;;;1.90;0.50;;;;;;;7.49;100.00;102191.53;5315082;26;20471;-75
2024/04/12 02:21:31;;;;;;;2.78;0.88;;;;;;;7.48;100.00;102183.72;5354690;26;20476;-75
2024/04/12 02:24:01;;;;;;;1.45;0.60;;;;;;;7.43;100.00;102189.97;5341330;26;20107;-76
2024/04/12 02:26:35;;;;;;;2.20;0.90;;;;;;;7.46;100.00;102189.75;5344125;26;20008;-76
2024/04/12 02:29:05;;;;;;;1.23;0.52;;;;;;;7.44;100.00;102192.25;5341731;26;20628;-75
2024/04/12 02:31:36;;;;;;;1.73;0.57;;;;;;;7.42;100.00;102185.69;5345228;26;20040;-76
2024/04/12 02:34:07;;;;;;;2.45;0.68;;;;;;;7.39;100.00;102184.69;5337702;26;20016;-75
2024/04/12 02:36:37;;;;;;;3.53;0.47;;;;;;;7.37;100.00;102180.91;5357124;26;20032;-76
2024/04/12 02:39:08;;;;;;;3.47;0.55;;;;;;;7.32;100.00;102188.69;5345184;26;21633;-74
2024/04/12 02:41:45;;;;;;;2.83;1.10;;;;;;;7.35;100.00;102191.72;5345582;26;20024;-76
2024/04/12 02:44:13;;;;;;;3.35;1.23;;;;;;;7.34;100.00;102188.16;5350325;26;20004;-76
2024/04/12 02:46:44;;;;;;;3.83;0.63;;;;;;;7.33;100.00;102197.72;5310979;26;20004;-76
2024/04/12 02:49:12;;;;;;;3.65;0.88;;;;;;;7.32;100.00;102188.69;5352269;26;20016;-76
2024/04/12 02:51:47;;;;;;;1.73;0.65;;;;;;;7.31;100.00;102192.69;5304850;26;20760;-75
2024/04/12 02:54:16;;;;;;;1.45;0.77;;;;;;;7.30;100.00;102202.22;5351433;26;20036;-76
2024/04/12 02:56:50;;;;;;;1.83;0.90;;;;;;;7.29;100.00;102188.91;5346964;26;20009;-76
2024/04/12 02:59:19;;;;;;;3.88;1.50;;;;;;;7.29;100.00;102191.66;5317999;26;20000;-76
2024/04/12 03:01:49;;;;;;;1.13;0.52;;;;;;;7.27;100.00;102189.41;5342396;26;20017;-75
2024/04/12 03:04:17;;;;;;;5.07;1.17;;;;;;;7.30;100.00;102187.66;5324784;26;20479;-76
2024/04/12 03:06:48;;;;;;;7.18;0.60;;;;;;;7.29;100.00;102188.91;5312032;26;20443;-77
2024/04/12 03:09:18;;;;;;;2.10;0.50;;;;;;;7.25;100.00;102186.38;5345278;26;20017;-76
2024/04/12 03:11:51;;;;;;;2.08;0.70;;;;;;;7.25;100.00;102191.91;5335852;26;20104;-76
2024/04/12 03:14:18;;;;;;;1.67;0.70;;;;;;;7.26;100.00;102192.66;5341993;26;20005;-76
2024/04/12 03:16:51;;;;;;;2.05;0.80;;;;;;;7.24;100.00;102184.09;5337609;26;20041;-76
2024/04/12 03:19:19;;;;;;;3.20;0.60;;;;;;;7.27;100.00;102188.63;5349816;26;20016;-76
2024/04/12 03:21:50;;;;;;;3.38;0.80;;;;;;;7.29;100.00;102186.91;5363852;26;20059;-74
2024/04/12 03:24:19;;;;;;;2.67;1.20;;;;;;;7.31;100.00;102178.88;5377982;26;20029;-74
2024/04/12 03:26:54;;;;;;;2.97;0.93;;;;;;;7.28;100.00;102188.16;5372216;26;20019;-74
2024/04/12 03:29:22;;;;;;;3.00;0.82;;;;;;;7.29;100.00;102189.69;5364062;26;19997;-74
2024/04/12 03:31:53;;;;;;;2.35;1.13;;;;;;;7.29;100.00;102175.88;5362075;26;20451;-74
2024/04/12 03:34:24;;;;;;;2.40;0.95;;;;;;;7.27;100.00;102177.59;5367125;26;20001;-74
2024/04/12 03:37:16;;;;;;;2.65;0.90;;;;;;;7.25;100.00;102175.34;5316994;26;20465;-76
2024/04/12 03:39:47;;;;;;;2.08;0.90;;;;;;;7.26;100.00;102181.59;5331008;26;20001;-76
2024/04/12 03:42:20;;;;;;;2.25;0.90;;;;;;;7.25;100.00;102175.34;5342047;26;20001;-76
2024/04/12 03:44:48;;;;;;;4.40;1.00;;;;;;;7.25;100.00;102175.34;5348974;26;20009;-77
2024/04/12 03:47:19;;;;;;;7.65;1.20;;;;;;;7.27;100.00;102177.59;5345293;26;20462;-77
2024/04/12 03:49:51;;;;;;;7.30;1.50;;;;;;;7.26;100.00;102179.59;5349628;26;20083;-77
2024/04/12 03:52:22;;;;;;;3.00;1.10;;;;;;;7.28;100.00;102179.88;5346616;26;20009;-77
2024/04/12 03:55:08;;;;;;;4.40;1.23;;;;;;;7.26;100.00;102176.09;5311939;26;20018;-77
2024/04/12 03:57:44;;;;;;;4.30;0.90;;;;;;;7.22;100.00;102178.31;5340659;26;20020;-77
2024/04/12 04:00:16;;;;;;;5.90;0.98;;;;;;;7.19;100.00;102176.53;5343629;26;20021;-77
2024/04/12 04:02:48;;;;;;;2.97;1.23;;;;;;;7.17;100.00;102185.34;5345672;26;20023;-74
2024/04/12 04:05:25;;;;;;;3.80;1.38;;;;;;;7.15;100.00;102176.78;5325100;26;20043;-73
2024/04/12 04:07:54;;;;;;;2.80;1.70;;;;;;;7.15;100.00;102182.31;5366345;26;20027;-73
2024/04/12 04:10:25;;;;;;;3.13;1.33;;;;;;;7.07;100.00;102176.50;5369700;26;20574;-75
2024/04/12 04:12:56;;;;;;;2.78;1.08;;;;;;;7.02;100.00;102187.47;5368397;26;20242;-76
2024/04/12 04:15:27;;;;;;;7.15;1.30;;;;;;;7.00;100.00;102185.22;5350127;26;20112;-80
2024/04/12 04:17:55;;;;;;;6.07;1.63;;;;;;;6.99;100.00;102183.69;5322947;26;20000;-76
2024/04/12 04:20:27;;;;;;;3.63;1.27;;;;;;;6.97;100.00;102185.44;5334035;26;20720;-75
2024/04/12 04:23:02;;;;;;;2.83;0.95;;;;;;;6.96;100.00;102175.66;5346669;26;20001;-76
2024/04/12 04:25:34;;;;;;;3.10;1.50;;;;;;;6.93;100.00;102182.19;5350027;26;20013;-75
2024/04/12 04:28:09;;;;;;;3.25;1.00;;;;;;;6.89;100.00;102182.38;5299149;26;20031;-76
2024/04/12 04:30:41;;;;;;;3.20;1.15;;;;;;;6.82;100.00;102178.06;5369000;26;20574;-76
2024/04/12 04:33:12;;;;;;;3.22;1.23;;;;;;;6.78;100.00;102176.81;5343601;26;20071;-76
2024/04/12 04:35:44;;;;;;;2.90;0.95;;;;;;;6.72;100.00;102179.50;5339293;26;20048;-76
2024/04/12 04:38:16;;;;;;;2.95;1.15;;;;;;;6.66;100.00;102173.94;5360602;26;20001;-76
2024/04/12 04:40:52;;;;;;;3.38;1.55;;;;;;;6.62;100.00;102175.41;5325663;26;20789;-76
2024/04/12 04:43:23;;;;;;;3.55;0.88;;;;;;;6.58;100.00;102181.16;5281606;26;20004;-76
2024/04/12 04:45:53;;;;;;;2.33;1.20;;;;;;;6.57;100.00;102187.16;5314406;26;20021;-76
2024/04/12 04:48:22;;;;;;;3.60;1.25;;;;;;;6.56;100.00;102193.94;5313056;26;20009;-76
2024/04/12 04:50:54;;;;;;;4.03;1.45;;;;;;;6.54;100.00;102190.91;5339079;26;20005;-76
2024/04/12 04:53:23;;;;;;;3.42;1.40;;;;;;;6.55;100.00;102195.16;5345255;26;20008;-76
2024/04/12 04:55:54;;;;;;;;;;;;;;;6.53;100.00;102195.66;5353298;26;20009;-76
2024/04/12 04:58:28;;;;;;;1.98;1.15;;;;;;;6.48;100.00;102185.34;5343412;26;20391;-76
2024/04/12 05:00:58;;;;;;;2.88;1.27;;;;;;;6.46;100.00;102193.34;5335111;26;20001;-75
2024/04/12 05:03:26;;;;;;;4.50;1.40;;;;;;;6.47;100.00;102192.09;5317363;26;20047;-77
2024/04/12 05:05:56;;;;;;;4.57;1.45;;;;;;;6.44;100.00;102182.03;5336012;26;20004;-76
2024/04/12 05:08:24;;;;;;;4.30;1.65;;;;;;;6.42;100.00;102195.56;5344996;26;20077;-77
2024/04/12 05:10:58;;;;;;;2.55;1.30;;;;;;;6.42;100.00;102203.81;5341741;26;20005;-76
2024/04/12 05:13:30;;;;;;;8.13;1.02;;;;;;;6.47;100.00;102200.38;5352312;26;20027;-77
2024/04/12 05:16:00;;;;;;;5.95;1.73;;;;;;;6.47;100.00;102205.88;5333091;26;20012;-77
2024/04/12 05:18:28;;;;;;;3.17;0.90;;;;;;;6.48;100.00;102204.66;5337060;26;20025;-76
2024/04/12 05:20:59;;;;;;;3.42;1.35;;;;;;;6.47;100.00;102209.38;5362887;26;20110;-74
2024/04/12 05:23:28;;;;;;;3.28;1.10;;;;;;;6.50;100.00;102212.41;5360562;26;20016;-75
2024/04/12 05:25:59;;;;;;;3.85;1.20;;;;;;;6.52;100.00;102207.19;5368542;26;20005;-74
2024/04/12 05:28:29;;;;;;;7.68;1.67;;;;;;;6.57;100.00;102211.97;5359010;26;20009;-74
2024/04/12 05:31:00;;;;;;;6.75;1.92;;;;;;;6.59;100.00;102218.53;5362880;26;20015;-76
2024/04/12 05:33:29;;;;;;;6.13;1.23;;;;;;;6.62;100.00;102223.06;5318786;26;20001;-76
2024/04/12 05:36:05;;;;;;;2.28;1.27;;;;;;;6.69;100.00;102221.88;5324171;26;20005;-77
2024/04/12 05:38:34;;;;;;;5.80;2.33;;;;;;;6.86;100.00;102222.75;5340501;26;20480;-77
2024/04/12 05:41:09;;;;;;;4.75;1.73;;;;;;;6.96;100.00;102219.81;5338281;26;20009;-76
2024/04/12 05:43:41;;;;;;;4.68;2.08;;;;;;;7.14;100.00;102219.44;5338275;26;20020;-76
2024/04/12 05:46:11;;;;;;;5.85;2.42;;;;;;;7.27;100.00;102221.75;5334350;26;20473;-76
2024/04/12 05:48:41;;;;;;;5.80;2.08;;;;;;;7.48;100.00;102225.16;5341812;26;20481;-76
2024/04/12 05:51:12;;;;;;;4.78;2.13;;;;;;;7.60;100.00;102223.22;5301304;26;20009;-76
2024/04/12 05:53:40;;;;;;;5.32;1.77;;;;;;;7.73;100.00;102232.56;5328990;26;20017;-76
2024/04/12 05:56:25;;;;;;;5.35;1.98;;;;;;;7.85;100.00;102232.59;5304267;26;20467;-77
2024/04/12 05:58:56;;;;;;;6.57;2.33;;;;;;;8.01;100.00;102231.91;5354663;26;20007;-77
2024/04/12 06:01:33;;;;;;;6.45;2.15;;;;;;;8.21;100.00;102228.19;5345284;26;20009;-76
2024/04/12 06:04:01;;;;;;;7.25;1.75;;;;;;;8.42;100.00;102231.53;5311750;26;20016;-77
2024/04/12 06:06:33;;;;;;;7.28;1.92;;;;;;;8.58;100.00;102232.78;5340189;26;20000;-78
2024/04/12 06:09:05;;;;;;;4.93;1.73;;;;;;;8.81;100.00;102242.63;5342067;26;20082;-77
2024/04/12 06:11:43;;;;;;;6.80;2.13;;;;;;;9.01;100.00;102240.84;5338186;26;20014;-77
2024/04/12 06:14:16;;;;;;;4.63;2.15;;;;;;;9.25;100.00;102229.97;5357071;26;20001;-76
2024/04/12 06:16:48;;;;;;;5.22;1.38;;;;;;;9.44;100.00;102232.94;5351227;26;20008;-75
2024/04/12 06:19:16;;;;;;;4.93;2.30;;;;;;;9.72;100.00;102240.44;5336226;26;20345;-75
2024/04/12 06:21:48;;;;;;;6.63;3.15;;;;;;;9.96;100.00;102237.03;5344391;26;20016;-76
2024/04/12 06:24:26;;;;;;;9.77;2.15;;;;;;;10.31;100.00;102239.16;5355088;26;20827;-77
2024/04/12 06:26:57;;;;;;;4.80;1.80;;;;;;;10.69;100.00;102241.41;5363791;26;20020;-74
2024/04/12 06:29:33;;;;;;;6.25;1.90;;;;;;;11.03;100.00;102244.66;5344435;26;20111;-78
2024/04/12 06:32:11;;;;;;;3.30;1.50;;;;;;;11.35;100.00;102253.16;5321684;26;20017;-77
2024/04/12 06:34:41;;;;;;;2.78;1.27;;;;;;;11.63;100.00;102258.41;5345149;26;20004;-76
2024/04/12 06:37:15;;;;;;;6.97;1.85;;;;;;;11.82;100.00;102254.91;5316195;26;20028;-77
2024/04/12 06:39:44;;;;;;;4.65;1.42;;;;;;;12.11;100.00;102258.09;5339629;26;20016;-77
2024/04/12 06:42:18;;;;;;;4.55;1.58;;;;;;;12.36;100.00;102262.28;5348928;26;20005;-75
2024/04/12 06:44:49;;;;;;;3.95;1.33;;;;;;;12.73;100.00;102252.34;5328581;26;20019;-77
2024/04/12 06:47:21;;;;;;;7.00;1.92;;;;;;;12.83;100.00;102261.06;5349692;26;20012;-78
2024/04/12 06:49:50;;;;;;;5.75;0.90;;;;;;;12.68;100.00;102247.63;5331321;26;20009;-77
2024/04/12 06:52:25;;;;;;;5.17;1.30;;;;;;;12.68;100.00;102239.28;5313471;26;20742;-76
2024/04/12 06:54:52;;;;;;;2.58;1.02;;;;;;;12.87;100.00;102236.44;5313697;26;20082;-76
2024/04/12 06:57:25;;;;;;;4.30;1.23;;;;;;;13.14;100.00;102237.22;5349273;26;20470;-77
2024/04/12 06:59:58;;;;;;;3.13;1.17;;;;;;;13.28;100.00;102235.22;5304688;26;20040;-76
2024/04/12 07:02:29;;;;;;;9.20;1.40;;;;;;;13.55;100.00;102236.72;5328292;26;20011;-77
2024/04/12 07:05:05;;;;;;;6.78;1.60;;;;;;;13.38;100.00;102243.91;5351525;26;20036;-77
2024/04/12 07:07:37;;;;;;;5.80;1.45;;;;;;;13.27;100.00;102248.41;5284057;26;20008;-77
2024/04/12 07:10:09;;;;;;;4.38;2.03;;;;;;;13.49;100.00;102257.63;5312503;26;20006;-77
2024/04/12 07:12:43;;;;;;;4.00;1.45;;;;;;;13.83;100.00;102270.91;5347394;26;20005;-77
2024/04/12 07:15:21;;;;;;;5.50;2.03;;;;;;;14.26;100.00;102266.94;5316856;26;20000;-76
2024/04/12 07:17:57;;;;;;;9.48;1.48;;;;;;;14.17;100.00;102266.13;5356917;26;20008;-74
2024/04/12 07:20:38;;;;;;;3.35;0.90;;;;;;;14.18;100.00;102275.97;5359921;26;20011;-77
2024/04/12 07:23:10;;;;;;;4.88;1.30;;;;;;;14.16;100.00;102281.34;5365621;26;20515;-75
2024/04/12 07:25:45;;;;;;;7.20;1.55;;;;;;;14.61;100.00;102279.59;5354134;21;20035;-76
2024/04/12 07:28:18;;;;;;;6.05;1.27;;;;;;;14.99;100.00;102277.16;5390950;26;19999;-76
2024/04/12 07:30:48;;;;;;;11.10;1.58;;;;;;;15.39;100.00;102276.88;5438764;26;19995;-77
2024/04/12 07:33:24;;;;;;;7.60;1.40;;;;;;;15.60;99.99;102267.66;5437069;26;20018;-77
2024/04/12 07:35:52;;;;;;;6.10;1.48;;;;;;;15.72;100.00;102277.25;5397226;26;20003;-75
2024/04/12 07:38:22;;;;;;;3.75;1.38;;;;;;;15.73;100.00;102267.56;5400139;26;20014;-77
2024/04/12 07:40:54;;;;;;;3.15;1.52;;;;;;;15.33;100.00;102267.91;5397407;26;20004;-78
2024/04/12 07:43:31;;;;;;;8.25;1.88;;;;;;;15.79;100.00;102262.56;5392818;26;20858;-77
2024/04/12 07:46:05;;;;;;;5.45;1.63;;;;;;;15.62;100.00;102259.47;5388975;26;20018;-78
2024/04/12 07:48:36;;;;;;;7.90;1.58;;;;;;;15.89;100.00;102259.97;5396778;26;20012;-78
2024/04/12 07:51:07;;;;;;;4.35;1.73;;;;;;;15.90;100.00;102250.31;5386499;26;20008;-78
2024/04/12 07:53:45;;;;;;;3.38;1.38;;;;;;;16.41;100.00;102254.34;5387315;26;20078;-75
2024/04/12 07:56:14;;;;;;;4.10;1.90;;;;;;;16.19;100.00;102253.72;5392431;26;20019;-76
2024/04/12 07:59:01;;;;;;;5.22;1.98;;;;;;;16.76;100.00;102259.06;5396982;26;20798;-79
2024/04/12 08:01:33;;;;;;;8.50;1.73;;;;;;;17.03;92.47;102263.53;5394576;26;20015;-75
2024/04/12 08:04:15;;;;;;;3.92;1.50;;;;;;;16.61;89.47;102261.81;5406113;26;20011;-78
2024/04/12 08:06:55;;;;;;;5.22;1.70;;;;;;;16.63;93.96;102255.66;5392580;26;20027;-75
2024/04/12 08:09:35;;;;;;;6.38;1.65;;;;;;;17.28;84.87;102263.69;5400746;26;20007;-78
2024/04/12 08:12:13;;;;;;;;;;;;;;;17.57;88.68;102264.19;5401071;26;20579;-76
2024/04/12 08:14:51;;;;;;;1.75;0.98;;;;;;;17.80;76.03;102264.88;5395294;26;19938;-78
2024/04/12 08:17:27;;;;;;;7.03;1.42;;;;;;;17.88;82.66;102264.09;5394166;26;20567;-78
2024/04/12 08:20:12;;;;;;;9.23;1.67;;;;;;;17.40;89.21;102261.97;5393861;26;20644;-77
2024/04/12 08:22:43;;;;;;;3.28;1.50;;;;;;;17.86;88.43;102261.88;5382021;26;20023;-76
2024/04/12 08:25:18;;;;;;;4.28;1.60;;;;;;;18.43;81.52;102263.22;5396945;26;20000;-76
2024/04/12 08:27:47;;;;;;;4.95;2.20;;;;;;;18.20;84.16;102261.31;5397569;26;20480;-78
2024/04/12 08:30:19;;;;;;;3.72;1.50;;;;;;;18.30;75.94;102263.50;5405123;26;20004;-78
2024/04/12 08:32:51;;;;;;;4.15;1.80;;;;;;;18.24;87.50;102260.91;5392338;26;20078;-78
2024/04/12 08:35:24;;;;;;;5.93;1.67;;;;;;;18.17;88.07;102251.19;5400873;26;20039;-76
2024/04/12 08:37:54;;;;;;;6.72;1.50;;;;;;;18.84;70.01;102249.81;5392988;26;20009;-78
2024/04/12 08:40:25;;;;;;;4.78;1.70;;;;;;;18.96;66.54;102250.09;5389010;26;20098;-78
2024/04/12 08:43:08;;;;;;;2.75;1.30;;;;;;;18.77;69.00;102257.00;5399396;26;20004;-77
2024/04/12 08:45:47;;;;;;;3.78;1.35;;;;;;;18.87;67.23;102257.13;5398180;26;20003;-80
2024/04/12 08:48:22;;;;;;;6.40;2.03;;;;;;;18.67;69.22;102259.69;5399909;26;20000;-77
2024/04/12 08:51:04;;;;;;;4.82;1.73;;;;;;;19.02;69.41;102267.47;5396210;26;19999;-77
2024/04/12 08:53:34;;;;;;;3.17;1.17;;;;;;;19.42;71.12;102258.81;5390505;26;20008;-78
2024/04/12 08:56:06;;;;;;;7.28;1.50;;;;;;;19.42;72.93;102269.34;5402109;26;20981;-78
2024/04/12 08:58:36;;;;;;;4.25;1.80;;;;;;;19.82;71.37;102249.34;5397325;26;20011;-78
2024/04/12 09:01:09;;;;;;;7.55;1.60;;;;;;;19.47;67.84;102240.94;5390660;26;20000;-78
2024/04/12 09:03:43;;;;;;;5.35;1.88;;;;;;;19.20;80.56;102248.56;5395751;26;20533;-77
2024/04/12 09:06:22;;;;;;;4.60;1.70;;;;;;;19.50;70.75;102236.22;5396696;26;20038;-77
2024/04/12 09:08:54;;;;;;;6.25;1.20;;;;;;;19.85;75.92;102230.53;5403106;26;20717;-77
2024/04/12 09:11:27;;;;;;;3.42;1.45;;;;;;;20.53;66.35;102228.78;5388971;26;20438;-77
2024/04/12 09:14:08;;;;;;;3.13;1.48;;;;;;;20.20;72.20;102234.00;5392810;26;20003;-77
2024/04/12 09:16:44;;;;;;;6.13;1.50;;;;;;;19.70;69.61;102234.31;5403831;26;19999;-78
2024/04/12 09:19:18;;;;;;;7.57;1.65;;;;;;;20.01;72.96;102231.09;5356985;26;20022;-79
2024/04/12 09:21:58;;;;;;;4.50;1.58;;;;;;;20.72;66.09;102238.66;5400344;26;20567;-78
2024/04/12 09:24:31;;;;;;;4.47;1.60;;;;;;;20.80;64.84;102228.75;5399578;26;20533;-76
2024/04/12 09:27:09;;;;;;;3.92;1.10;;;;;;;20.46;69.53;102224.03;5386777;26;20014;-77
2024/04/12 09:29:54;;;;;;;5.35;1.35;;;;;;;21.18;60.97;102235.03;5401809;26;20004;-77
2024/04/12 09:35:20;;;;;;;3.58;1.15;;;;;;;21.54;57.73;102233.41;5388161;26;20019;-78
2024/04/12 09:37:54;;;;;;;3.10;1.35;;;;;;;21.85;58.17;102230.69;5363595;26;20076;-77
2024/04/12 09:40:28;;;;;;;4.95;1.30;;;;;;;21.73;58.01;102239.03;5400147;26;20018;-78
2024/04/12 09:45:49;;;;;;;4.60;1.85;;;;;;;21.79;58.60;102225.34;5408977;26;19996;-77
2024/04/12 10:37:36;;;;;;;7.25;2.88;;;;;;;23.11;57.70;102201.06;5300450;27;19998;-77
2024/04/12 10:40:09;;;;;;;4.95;2.53;;;;;;;23.02;57.80;102204.72;5286255;27;20088;-78
2024/04/12 10:42:43;;;;;;;7.45;2.00;;;;;;;23.42;56.44;102215.13;5265980;27;20021;-77
2024/04/12 10:45:18;;;;;;;3.22;1.38;;;;;;;23.81;55.13;102209.84;5260354;27;20030;-78
2024/04/12 10:47:54;;;;;;;3.08;0.68;;;;;;;23.42;57.35;102214.34;5286770;27;20041;-77
2024/04/12 10:50:29;;;;;;;1.73;0.60;;;;;;;23.02;61.01;102199.03;5294502;26;20025;-77
2024/04/12 10:53:05;;;;;;;3.15;0.82;;;;;;;23.04;60.75;102194.25;5292235;26;20017;-76
2024/04/12 10:55:38;;;;;;;3.33;1.05;;;;;;;22.82;60.67;102189.94;5305166;26;20427;-76
2024/04/12 10:58:16;;;;;;;2.70;0.68;;;;;;;23.09;61.75;102181.84;5265545;27;20010;-77
2024/04/12 11:00:55;;;;;;;1.75;0.57;;;;;;;23.31;58.93;102190.31;5303176;26;20075;-77
2024/04/12 11:03:29;;;;;;;4.70;1.25;;;;;;;23.53;60.30;102183.25;5282288;27;20006;-76
2024/04/12 11:06:17;;;;;;;1.92;0.60;;;;;;;23.50;59.07;102181.63;5291512;26;20666;-78
2024/04/12 11:08:49;;;;;;;2.63;0.73;;;;;;;23.50;61.15;102189.41;5280585;26;20091;-77
2024/04/12 11:11:26;;;;;;;8.00;0.68;;;;;;;23.98;58.90;102191.72;5242483;27;20019;-78
2024/04/12 11:13:59;;;;;;;4.80;1.05;;;;;;;24.29;59.06;102192.84;5260473;27;20779;-77
2024/04/12 11:33:15;;;;;;;7.22;2.65;;;;;;;26.03;55.70;102169.31;5257199;27;20047;-77
2024/04/12 11:35:53;;;;;;;5.18;1.08;;;;;;;25.59;56.16;102170.47;5262168;27;20716;-76
2024/04/12 11:38:27;;;;;;;2.22;0.68;;;;;;;25.55;56.70;102167.44;5253431;27;20022;-74
2024/04/12 11:40:56;;;;;;;3.60;0.93;;;;;;;26.17;55.38;102172.16;5230346;27;20007;-77
2024/04/12 11:43:27;;;;;;;3.75;1.02;;;;;;;25.41;55.53;102164.53;5234837;27;20793;-77
2024/04/12 11:45:54;;;;;;;3.17;1.10;;;;;;;24.52;58.85;102172.97;5259921;27;20060;-75
2024/04/12 11:48:31;;;;;;;5.65;0.70;;;;;;;23.64;61.41;102166.88;5263697;27;20002;-78
2024/04/12 11:51:08;;;;;;;;;;;;;;;22.50;71.26;102164.53;5233853;27;20006;-77
2024/04/12 11:53:39;;;;;;;3.55;1.17;;;;;;;22.27;76.44;102162.28;5261566;27;19928;-76
2024/04/12 11:56:09;;;;;;;3.88;1.17;;;;;;;21.78;77.05;102167.34;5239092;27;20089;-77
2024/04/12 11:58:43;;;;;;;3.03;1.23;;;;;;;21.42;84.52;102165.53;5227988;27;20010;-77
2024/04/12 12:01:11;;;;;;;4.00;1.40;;;;;;;21.47;85.98;102150.34;5261682;27;20018;-77
2024/04/12 12:03:45;;;;;;;3.38;0.82;;;;;;;20.91;95.02;102154.06;5265022;27;20484;-77
2024/04/12 12:06:13;;;;;;;1.98;1.02;;;;;;;21.82;90.42;102150.69;5258097;27;20010;-77
2024/04/12 12:08:44;;;;;;;3.45;1.42;;;;;;;22.14;85.18;102157.13;5259745;27;20007;-77
2024/04/12 12:11:12;;;;;;;3.67;1.55;;;;;;;21.76;89.40;102158.75;5262760;26;20026;-77
2024/04/12 12:13:44;;;;;;;1.83;0.70;;;;;;;21.36;93.93;102157.31;5238664;27;20002;-77
2024/04/12 12:16:14;;;;;;;2.15;0.82;;;;;;;21.47;94.20;102158.81;5286818;26;20634;-77
2024/04/12 12:18:48;;;;;;;2.45;0.50;;;;;;;21.59;97.34;102161.78;5290838;26;20949;-77
2024/04/12 12:21:17;;;;;;;3.17;0.50;;;;;;;21.24;98.95;102159.25;5305447;26;20010;-77
2024/04/12 12:23:48;;;;;;;1.42;0.63;;;;;;;21.09;97.29;102153.91;5296760;26;20060;-77
2024/04/12 12:26:15;;;;;;;1.48;0.40;;;;;;;21.33;97.63;102149.31;5299948;26;20469;-77
2024/04/12 12:28:50;;;;;;;7.90;3.40;;;;;;;21.73;95.20;102151.47;5290951;27;20021;-78
2024/04/12 12:31:18;;;;;;;0.65;0.40;;;;;;;22.19;89.74;102158.88;5281176;27;20005;-77
2024/04/12 12:33:53;;;;;;;0.70;0.35;;;;;;;22.19;89.24;102155.31;5278053;27;20002;-77
2024/04/12 12:36:27;;;;;;;1.88;0.50;;;;;;;21.98;89.96;102148.25;5261785;26;20030;-77
2024/04/12 12:38:55;;;;;;;1.77;0.30;;;;;;;22.24;89.13;102143.69;5290053;27;20020;-77
2024/04/12 12:41:27;;;;;;;0.77;0.20;;;;;;;21.91;94.05;102140.72;5296327;26;20010;-77
2024/04/12 12:43:57;;;;;;;1.20;0.50;;;;;;;21.88;88.09;102139.06;5305690;26;20054;-77
2024/04/12 12:46:28;;;;;;;2.47;0.60;;;;;;;21.10;96.06;102130.03;5299530;26;20180;-77
2024/04/12 12:48:58;;;;;;;1.65;0.38;;;;;;;21.26;100.00;102123.47;5268560;27;20358;-76
2024/04/12 12:51:30;;;;;;;2.55;1.05;;;;;;;21.45;100.00;102119.88;5292997;26;20005;-76
2024/04/12 12:54:00;;;;;;;0.98;0.30;;;;;;;21.71;94.57;102123.09;5288658;26;20534;-75
2024/04/12 12:56:31;;;;;;;0.95;0.38;;;;;;;21.77;90.13;102125.59;5276081;27;20010;-78
2024/04/12 12:58:59;;;;;;;0.65;0.25;;;;;;;22.33;83.96;102116.72;5270976;26;20014;-74
2024/04/12 13:01:34;;;;;;;0.20;0.10;;;;;;;22.17;84.92;102121.25;5307795;26;20005;-77